createdAt,value
2023-04-23T00:00:57.783Z,14.19
2023-04-23T00:03:27.079Z,14.18
2023-04-23T00:05:56.607Z,14.21
2023-04-23T00:08:24.714Z,14.23
2023-04-23T00:10:53.026Z,14.23
2023-04-23T00:13:21.381Z,14.23
2023-04-23T00:15:49.756Z,14.21
2023-04-23T00:18:20.047Z,14.15
2023-04-23T00:20:48.011Z,14.15
2023-04-23T00:23:15.907Z,14.14
2023-04-23T00:25:43.877Z,14.13
2023-04-23T00:28:11.803Z,14.14
2023-04-23T00:30:39.860Z,14.18
2023-04-23T00:33:08.361Z,14.23
2023-04-23T00:35:37.713Z,14.26
2023-04-23T00:38:05.968Z,14.28
2023-04-23T00:40:33.920Z,14.30
2023-04-23T00:43:02.104Z,14.32
2023-04-23T00:45:30.156Z,14.35
2023-04-23T00:47:58.615Z,14.37
2023-04-23T00:50:26.639Z,14.36
2023-04-23T00:52:55.938Z,14.35
2023-04-23T00:55:24.135Z,14.33
2023-04-23T00:57:52.224Z,14.31
2023-04-23T01:00:20.719Z,14.25
2023-04-23T01:02:49.300Z,14.16
2023-04-23T01:05:17.624Z,14.12
2023-04-23T01:07:45.986Z,14.06
2023-04-23T01:10:15.307Z,14.08
2023-04-23T01:12:43.276Z,14.09
2023-04-23T01:15:11.843Z,14.10
2023-04-23T01:17:39.799Z,14.08
2023-04-23T01:20:09.647Z,14.05
2023-04-23T01:22:39.152Z,13.99
2023-04-23T01:25:08.661Z,13.95
2023-04-23T01:27:36.992Z,13.92
2023-04-23T01:30:06.031Z,13.93
2023-04-23T01:32:34.867Z,13.94
2023-04-23T01:35:04.673Z,13.96
2023-04-23T01:37:32.812Z,13.96
2023-04-23T01:40:02.139Z,13.94
2023-04-23T01:42:30.267Z,13.92
2023-04-23T01:44:58.192Z,13.88
2023-04-23T01:47:26.198Z,13.84
2023-04-23T01:49:54.080Z,13.83
2023-04-23T01:52:22.047Z,13.80
2023-04-23T01:54:50.553Z,13.77
2023-04-23T01:57:24.043Z,13.69
2023-04-23T01:59:52.066Z,13.69
2023-04-23T02:02:21.088Z,13.64
2023-04-23T02:04:49.846Z,13.57
2023-04-23T02:07:17.738Z,13.57
2023-04-23T02:09:45.965Z,13.52
2023-04-23T02:12:13.938Z,13.52
2023-04-23T02:14:43.509Z,13.53
2023-04-23T02:17:12.497Z,13.54
2023-04-23T02:19:40.845Z,13.55
2023-04-23T02:22:09.339Z,13.55
2023-04-23T02:24:39.014Z,13.54
2023-04-23T02:27:07.259Z,13.53
2023-04-23T02:29:35.157Z,13.52
2023-04-23T02:32:04.559Z,13.52
2023-04-23T02:34:32.530Z,13.53
2023-04-23T02:37:00.477Z,13.54
2023-04-23T02:39:28.423Z,13.54
2023-04-23T02:41:56.413Z,13.54
2023-04-23T02:44:24.319Z,13.57
2023-04-23T02:46:52.386Z,13.59
2023-04-23T02:49:21.670Z,13.60
2023-04-23T02:51:49.705Z,13.60
2023-04-23T02:54:18.022Z,13.60
2023-04-23T02:56:46.443Z,13.59
2023-04-23T02:59:14.682Z,13.55
2023-04-23T03:01:42.623Z,13.53
2023-04-23T03:04:12.373Z,13.53
2023-04-23T03:06:41.983Z,13.52
2023-04-23T03:09:09.963Z,13.52
2023-04-23T03:11:38.079Z,13.49
2023-04-23T03:14:06.543Z,13.45
2023-04-23T03:16:35.024Z,13.40
2023-04-23T03:19:03.102Z,13.35
2023-04-23T03:21:31.473Z,13.29
2023-04-23T03:24:01.244Z,13.25
2023-04-23T03:26:29.262Z,13.21
2023-04-23T03:28:57.192Z,13.17
2023-04-23T03:31:25.154Z,13.16
2023-04-23T03:33:53.872Z,13.17
2023-04-23T03:36:29.510Z,13.12
2023-04-23T03:38:57.945Z,13.11
2023-04-23T03:41:28.497Z,13.06
2023-04-23T03:43:56.684Z,13.02
2023-04-23T03:46:42.087Z,13.00
2023-04-23T03:49:11.384Z,12.92
2023-04-23T03:51:39.833Z,12.94
2023-04-23T03:54:09.707Z,12.94
2023-04-23T03:56:43.100Z,12.91
2023-04-23T03:59:18.678Z,12.90
2023-04-23T04:01:49.111Z,12.88
2023-04-23T04:04:17.412Z,12.81
2023-04-23T04:06:45.439Z,12.77
2023-04-23T04:09:13.463Z,12.78
2023-04-23T04:11:41.987Z,12.79
2023-04-23T04:14:11.788Z,12.77
2023-04-23T04:16:39.761Z,12.75
2023-04-23T04:19:08.027Z,12.73
2023-04-23T04:21:35.992Z,12.72
2023-04-23T04:24:04.720Z,12.71
2023-04-23T04:26:33.094Z,12.73
2023-04-23T04:29:01.663Z,12.76
2023-04-23T04:31:31.130Z,12.81
2023-04-23T04:33:59.113Z,12.84
2023-04-23T04:36:27.215Z,12.86
2023-04-23T04:38:56.133Z,12.91
2023-04-23T04:41:25.503Z,12.95
2023-04-23T04:43:53.550Z,12.99
2023-04-23T04:46:21.461Z,12.99
2023-04-23T04:48:51.105Z,12.99
2023-04-23T04:51:19.214Z,13.01
2023-04-23T04:53:47.108Z,13.00
2023-04-23T04:56:15.140Z,12.98
2023-04-23T04:58:43.053Z,12.93
2023-04-23T05:01:12.640Z,12.87
2023-04-23T05:03:40.848Z,12.80
2023-04-23T05:06:10.864Z,12.80
2023-04-23T05:08:38.946Z,12.79
2023-04-23T05:11:06.883Z,12.78
2023-04-23T05:13:34.941Z,12.77
2023-04-23T05:16:02.898Z,12.75
2023-04-23T05:18:30.826Z,12.75
2023-04-23T05:20:58.756Z,12.76
2023-04-23T05:23:28.311Z,12.78
2023-04-23T05:25:57.151Z,12.79
2023-04-23T05:28:25.422Z,12.79
2023-04-23T05:30:53.425Z,12.79
2023-04-23T05:33:21.291Z,12.81
2023-04-23T05:35:49.254Z,12.81
2023-04-23T05:38:17.199Z,12.79
2023-04-23T05:40:46.513Z,12.77
2023-04-23T05:43:14.471Z,12.78
2023-04-23T05:45:42.992Z,12.79
2023-04-23T05:48:11.211Z,12.79
2023-04-23T05:50:39.166Z,12.80
2023-04-23T05:53:07.455Z,12.82
2023-04-23T05:55:35.965Z,12.85
2023-04-23T05:58:06.170Z,12.88
2023-04-23T06:00:35.510Z,12.94
2023-04-23T06:03:03.610Z,13.01
2023-04-23T06:05:31.733Z,13.04
2023-04-23T06:07:59.816Z,13.08
2023-04-23T06:10:27.894Z,13.07
2023-04-23T06:12:56.246Z,13.09
2023-04-23T06:15:27.244Z,13.13
2023-04-23T06:17:55.354Z,13.18
2023-04-23T06:20:23.443Z,13.22
2023-04-23T06:22:51.807Z,13.28
2023-04-23T06:25:19.752Z,13.30
2023-04-23T06:27:47.866Z,13.32
2023-04-23T06:30:22.440Z,13.38
2023-04-23T06:32:52.529Z,13.45
2023-04-23T06:35:20.660Z,13.48
2023-04-23T06:37:48.598Z,13.51
2023-04-23T06:40:16.611Z,13.51
2023-04-23T06:42:45.497Z,13.52
2023-04-23T06:45:24.652Z,13.54
2023-04-23T06:47:54.048Z,13.55
2023-04-23T06:50:22.137Z,13.54
2023-04-23T06:52:50.050Z,13.47
2023-04-23T06:55:17.950Z,13.40
2023-04-23T06:57:45.952Z,13.35
2023-04-23T07:00:14.672Z,13.36
2023-04-23T07:02:44.131Z,13.42
2023-04-23T07:05:13.599Z,13.47
2023-04-23T07:07:43.506Z,13.52
2023-04-23T07:10:12.377Z,13.53
2023-04-23T07:12:41.240Z,13.57
2023-04-23T07:15:10.493Z,13.68
2023-04-23T07:17:38.442Z,13.83
2023-04-23T07:20:08.889Z,13.96
2023-04-23T07:22:38.257Z,14.11
2023-04-23T07:25:08.639Z,14.28
2023-04-23T07:27:37.266Z,14.39
2023-04-23T07:30:06.218Z,14.48
2023-04-23T07:32:34.249Z,14.54
2023-04-23T07:35:02.202Z,14.58
2023-04-23T07:37:30.449Z,14.59
2023-04-23T07:40:00.834Z,14.59
2023-04-23T07:42:29.512Z,14.64
2023-04-23T07:44:57.421Z,14.71
2023-04-23T07:47:25.818Z,14.79
2023-04-23T07:49:53.911Z,14.90
2023-04-23T07:52:21.927Z,14.90
2023-04-23T07:54:50.241Z,14.82
2023-04-23T07:57:19.841Z,14.82
2023-04-23T07:59:47.747Z,14.88
2023-04-23T08:02:15.827Z,14.97
2023-04-23T08:04:44.029Z,15.00
2023-04-23T08:07:13.048Z,15.08
2023-04-23T08:09:41.916Z,15.12
2023-04-23T08:12:10.561Z,15.10
2023-04-23T08:14:39.888Z,15.06
2023-04-23T08:17:13.263Z,14.96
2023-04-23T08:19:41.450Z,14.96
2023-04-23T08:22:10.663Z,15.05
2023-04-23T08:24:38.683Z,15.20
2023-04-23T08:27:06.905Z,15.37
2023-04-23T08:29:35.520Z,15.57
2023-04-23T08:32:04.944Z,15.67
2023-04-23T08:34:35.619Z,15.69
2023-04-23T08:37:04.610Z,15.80
2023-04-23T08:39:33.112Z,15.79
2023-04-23T08:42:04.730Z,15.84
2023-04-23T08:44:33.004Z,15.86
2023-04-23T08:47:00.953Z,15.93
2023-04-23T08:49:30.530Z,16.00
2023-04-23T08:51:58.454Z,16.06
2023-04-23T08:54:27.489Z,16.02
2023-04-23T08:56:57.474Z,15.86
2023-04-23T08:59:26.034Z,15.80
2023-04-23T09:01:54.402Z,15.80
2023-04-23T09:04:22.441Z,15.74
2023-04-23T09:06:53.093Z,15.69
2023-04-23T09:09:23.813Z,15.64
2023-04-23T09:11:54.638Z,15.59
2023-04-23T09:14:25.181Z,15.55
2023-04-23T09:16:53.512Z,15.60
2023-04-23T09:19:21.629Z,15.55
2023-04-23T09:21:51.320Z,15.52
2023-04-23T09:24:19.335Z,15.55
2023-04-23T09:26:48.390Z,15.65
2023-04-23T09:29:19.093Z,15.67
2023-04-23T09:31:52.232Z,15.71
2023-04-23T09:34:21.126Z,15.74
2023-04-23T09:59:39.500Z,15.74
2023-04-23T10:02:14.589Z,15.84
2023-04-23T11:01:49.169Z,14.78
2023-04-23T11:04:24.526Z,14.75
2023-04-23T11:06:54.851Z,14.69
2023-04-23T11:09:42.735Z,14.67
2023-04-23T11:12:12.927Z,14.64
2023-04-23T11:14:50.091Z,14.71
2023-04-23T11:17:21.681Z,14.76
2023-04-23T11:20:11.417Z,14.87
2023-04-23T11:22:39.803Z,14.97
2023-04-23T11:25:10.431Z,15.06
2023-04-23T11:27:39.860Z,15.17
2023-04-23T11:30:11.229Z,15.27
2023-04-23T11:32:40.940Z,15.40
2023-04-23T11:35:11.405Z,15.51
2023-04-23T11:37:40.998Z,15.59
2023-04-23T11:40:10.993Z,15.63
2023-04-23T11:42:46.741Z,15.67
2023-04-23T11:45:18.537Z,15.76
2023-04-23T11:47:49.298Z,15.88
2023-04-23T11:50:20.479Z,15.97
2023-04-23T11:52:48.584Z,15.90
2023-04-23T11:55:16.718Z,15.77
2023-04-23T11:57:45.218Z,15.67
2023-04-23T12:00:18.844Z,15.58
2023-04-23T12:02:55.484Z,15.52
2023-04-23T12:05:24.160Z,15.42
2023-04-23T12:07:52.978Z,15.34
2023-04-23T12:10:21.806Z,15.37
2023-04-23T12:12:53.452Z,15.38
2023-04-23T12:15:21.712Z,15.49
2023-04-23T12:17:51.268Z,15.59
2023-04-23T12:20:23.520Z,15.78
2023-04-23T12:22:51.588Z,16.01
2023-04-23T12:25:23.477Z,16.31
2023-04-23T12:27:51.491Z,16.53
2023-04-23T12:30:19.678Z,16.73
2023-04-23T12:32:48.164Z,16.85
2023-04-23T12:35:16.160Z,17.02
2023-04-23T12:37:45.483Z,17.08
2023-04-23T12:40:13.487Z,17.05
2023-04-23T12:42:41.758Z,16.97
2023-04-23T12:45:11.036Z,16.88
2023-04-23T12:47:39.016Z,16.82
2023-04-23T12:50:08.480Z,16.65
2023-04-23T12:52:36.692Z,16.47
2023-04-23T12:55:06.793Z,16.38
2023-04-23T12:57:34.777Z,16.31
2023-04-23T13:00:03.580Z,16.21
2023-04-23T13:02:31.877Z,16.18
2023-04-23T13:05:01.324Z,16.18
2023-04-23T13:07:29.658Z,16.14
2023-04-23T13:09:59.452Z,16.11
2023-04-23T13:12:28.900Z,16.01
2023-04-23T13:14:57.406Z,15.98
2023-04-23T13:17:26.453Z,15.91
2023-04-23T13:19:54.746Z,15.93
2023-04-23T13:22:22.802Z,16.16
2023-04-23T13:24:50.869Z,16.49
2023-04-23T13:27:18.867Z,16.84
2023-04-23T13:29:48.212Z,16.86
2023-04-23T13:32:16.865Z,16.87
2023-04-23T13:34:44.802Z,17.28
2023-04-23T13:37:12.853Z,17.71
2023-04-23T13:39:41.918Z,18.11
2023-04-23T13:42:10.454Z,18.45
2023-04-23T13:44:38.818Z,18.69
2023-04-23T13:47:08.717Z,18.94
2023-04-23T13:49:39.676Z,19.28
2023-04-23T13:52:08.981Z,19.55
2023-04-23T13:54:37.070Z,19.84
2023-04-23T13:57:05.197Z,20.36
2023-04-23T13:59:33.346Z,20.57
2023-04-23T14:02:01.321Z,20.47
2023-04-23T14:04:32.184Z,20.57
2023-04-23T14:07:00.496Z,20.46
2023-04-23T14:09:30.068Z,20.35
2023-04-23T14:11:58.236Z,20.26
2023-04-23T14:14:26.213Z,20.39
2023-04-23T14:16:54.295Z,20.53
2023-04-23T14:19:24.502Z,20.63
2023-04-23T14:21:53.824Z,20.36
2023-04-23T14:24:23.956Z,19.86
2023-04-23T14:26:51.912Z,19.34
2023-04-23T14:29:24.262Z,19.44
2023-04-23T14:31:52.255Z,19.57
2023-04-23T14:34:21.323Z,19.38
2023-04-23T14:36:49.994Z,19.46
2023-04-23T14:39:19.375Z,19.70
2023-04-23T14:41:48.172Z,20.14
2023-04-23T14:44:16.404Z,20.31
2023-04-23T14:46:44.439Z,20.25
2023-04-23T14:49:12.728Z,20.24
2023-04-23T14:51:41.357Z,20.23
2023-04-23T14:54:09.286Z,20.03
2023-04-23T14:56:38.649Z,19.86
2023-04-23T14:59:06.715Z,19.31
2023-04-23T15:01:35.093Z,19.06
2023-04-23T15:04:03.275Z,19.02
2023-04-23T15:06:31.270Z,18.80
2023-04-23T15:08:59.336Z,18.64
2023-04-23T15:11:27.227Z,18.23
2023-04-23T15:14:03.589Z,18.03
2023-04-23T15:16:46.708Z,18.18
2023-04-23T15:19:17.594Z,18.51
2023-04-23T15:21:45.714Z,18.87
2023-04-23T15:24:13.676Z,19.40
2023-04-23T15:26:41.782Z,19.58
2023-04-23T15:29:11.217Z,19.56
2023-04-23T15:31:39.293Z,18.91
2023-04-23T15:34:08.924Z,18.21
2023-04-23T15:36:38.087Z,17.70
2023-04-23T15:39:08.648Z,17.56
2023-04-23T15:41:39.406Z,17.69
2023-04-23T15:44:12.333Z,17.87
2023-04-23T15:46:40.548Z,18.14
2023-04-23T15:49:08.653Z,18.22
2023-04-23T15:51:36.789Z,18.21
2023-04-23T15:54:08.040Z,18.29
2023-04-23T15:56:36.601Z,18.29
2023-04-23T15:59:04.556Z,18.47
2023-04-23T16:01:33.899Z,18.79
2023-04-23T16:04:10.374Z,19.04
2023-04-23T16:06:39.890Z,19.33
2023-04-23T16:09:08.481Z,18.62
2023-04-23T16:11:36.989Z,17.95
2023-04-23T16:14:05.220Z,17.43
2023-04-23T16:16:34.927Z,17.10
2023-04-23T16:19:03.632Z,17.14
2023-04-23T16:21:32.783Z,17.58
2023-04-23T16:24:00.970Z,18.07
2023-04-23T16:26:29.447Z,18.34
2023-04-23T16:29:16.652Z,19.05
2023-04-23T16:31:47.138Z,19.78
2023-04-23T16:34:15.101Z,20.21
2023-04-23T16:36:43.105Z,20.47
2023-04-23T16:39:11.565Z,20.62
2023-04-23T16:41:39.705Z,20.74
2023-04-23T16:44:09.053Z,20.85
2023-04-23T16:46:37.218Z,20.87
2023-04-23T16:49:07.014Z,20.86
2023-04-23T16:51:37.362Z,21.03
2023-04-23T16:54:06.353Z,20.77
2023-04-23T16:56:34.346Z,20.83
2023-04-23T16:59:02.489Z,20.91
2023-04-23T17:01:30.458Z,20.98
2023-04-23T17:03:58.622Z,21.23
2023-04-23T17:06:28.940Z,21.24
2023-04-23T17:08:58.404Z,21.04
2023-04-23T17:11:26.345Z,21.12
2023-04-23T17:13:54.326Z,21.28
2023-04-23T17:16:23.038Z,21.50
2023-04-23T17:18:51.230Z,21.75
2023-04-23T17:21:19.244Z,21.96
2023-04-23T17:23:48.697Z,21.62
2023-04-23T17:26:17.432Z,21.60
2023-04-23T17:28:46.130Z,21.43
2023-04-23T17:31:14.703Z,20.97
2023-04-23T17:33:44.585Z,20.12
2023-04-23T17:36:12.519Z,19.45
2023-04-23T17:38:41.023Z,18.95
2023-04-23T17:41:10.441Z,18.55
2023-04-23T17:43:38.404Z,18.21
2023-04-23T17:46:06.381Z,18.14
2023-04-23T17:48:34.312Z,18.20
2023-04-23T17:51:04.094Z,18.16
2023-04-23T17:53:32.075Z,18.23
2023-04-23T17:56:02.998Z,18.54
2023-04-23T17:58:38.211Z,18.70
2023-04-23T18:01:07.633Z,18.73
2023-04-23T18:03:36.862Z,18.65
2023-04-23T18:06:08.625Z,18.64
2023-04-23T18:08:38.395Z,18.70
2023-04-23T18:11:07.937Z,18.74
2023-04-23T18:13:42.853Z,18.76
2023-04-23T18:16:11.187Z,18.67
2023-04-23T18:18:39.385Z,18.58
2023-04-23T18:21:08.379Z,18.41
2023-04-23T18:23:36.805Z,18.13
2023-04-23T18:26:05.760Z,17.73
2023-04-23T18:28:34.975Z,17.39
2023-04-23T18:31:04.739Z,17.11
2023-04-23T18:33:33.671Z,16.86
2023-04-23T18:36:04.051Z,16.68
2023-04-23T18:38:33.258Z,16.57
2023-04-23T18:41:04.473Z,16.46
2023-04-23T18:43:33.458Z,16.35
2023-04-23T18:46:01.653Z,16.27
2023-04-23T18:48:47.714Z,16.22
2023-04-23T18:51:21.260Z,16.08
2023-04-23T18:53:49.477Z,16.03
2023-04-23T18:56:17.789Z,15.97
2023-04-23T18:58:45.776Z,15.92
2023-04-23T19:01:13.898Z,15.85
2023-04-23T19:03:44.041Z,15.78
2023-04-23T19:06:12.094Z,15.74
2023-04-23T19:08:42.520Z,15.68
2023-04-23T19:11:10.516Z,15.59
2023-04-23T19:13:38.490Z,15.53
2023-04-23T19:16:06.707Z,15.48
2023-04-23T19:18:34.730Z,15.43
2023-04-23T19:21:04.699Z,15.33
2023-04-23T19:23:32.785Z,15.29
2023-04-23T19:26:01.701Z,15.24
2023-04-23T19:28:32.208Z,15.16
2023-04-23T19:31:00.933Z,15.11
2023-04-23T19:33:28.906Z,15.04
2023-04-23T19:35:57.097Z,15.04
2023-04-23T19:38:26.687Z,14.99
2023-04-23T19:40:54.758Z,14.98
2023-04-23T19:43:22.790Z,14.92
2023-04-23T19:45:51.874Z,14.87
2023-04-23T19:48:20.054Z,14.79
2023-04-23T19:50:48.689Z,14.75
2023-04-23T19:53:16.717Z,14.70
2023-04-23T19:55:46.163Z,14.66
2023-04-23T19:58:15.961Z,14.62
2023-04-23T20:00:44.163Z,14.61
2023-04-23T20:03:12.303Z,14.60
2023-04-23T20:05:42.341Z,14.59
2023-04-23T20:08:15.603Z,14.55
2023-04-23T20:10:45.704Z,14.51
2023-04-23T20:13:13.725Z,14.47
2023-04-23T20:15:41.765Z,14.43
2023-04-23T20:18:09.804Z,14.37
2023-04-23T20:20:39.910Z,14.35
2023-04-23T20:23:07.987Z,14.35
2023-04-23T20:25:36.618Z,14.30
2023-04-23T20:28:06.514Z,14.29
2023-04-23T20:30:34.817Z,14.27
2023-04-23T20:33:03.370Z,14.24
2023-04-23T20:35:31.917Z,14.25
2023-04-23T20:38:00.945Z,14.24
2023-04-23T20:40:29.144Z,14.24
2023-04-23T20:42:58.621Z,14.23
2023-04-23T20:45:28.369Z,14.19
2023-04-23T20:47:57.501Z,14.19
2023-04-23T20:50:25.913Z,14.10
2023-04-23T20:52:53.855Z,14.08
2023-04-23T20:55:22.233Z,14.06
2023-04-23T20:57:51.450Z,14.03
2023-04-23T21:00:20.453Z,14.02
2023-04-23T21:02:49.900Z,13.97
2023-04-23T21:05:18.106Z,13.95
2023-04-23T21:07:46.058Z,13.96
2023-04-23T21:10:14.053Z,13.93
2023-04-23T21:12:43.383Z,13.89
2023-04-23T21:15:12.630Z,13.94
2023-04-23T21:17:40.578Z,13.89
2023-04-23T21:20:10.617Z,13.84
2023-04-23T21:22:38.704Z,13.86
2023-04-23T21:25:07.410Z,13.88
2023-04-23T21:27:35.526Z,13.87
2023-04-23T21:30:06.576Z,13.82
2023-04-23T21:32:34.597Z,13.83
2023-04-23T21:35:02.579Z,13.85
2023-04-23T21:37:33.392Z,13.83
2023-04-23T21:40:01.580Z,13.83
2023-04-23T21:42:29.771Z,13.79
2023-04-23T21:44:57.784Z,13.78
2023-04-23T21:47:25.713Z,13.77
2023-04-23T21:49:53.795Z,13.76
2023-04-23T21:52:22.936Z,13.77
2023-04-23T21:54:52.607Z,13.74
2023-04-23T21:57:23.877Z,13.76
2023-04-23T21:59:51.981Z,13.73
2023-04-23T22:02:19.984Z,13.72
2023-04-23T22:04:48.962Z,13.67
2023-04-23T22:07:16.943Z,13.72
2023-04-23T22:09:45.064Z,13.72
2023-04-23T22:12:14.434Z,13.67
2023-04-23T22:14:42.605Z,13.67
2023-04-23T22:17:10.750Z,13.72
2023-04-23T22:19:38.749Z,13.73
2023-04-23T22:22:06.665Z,13.72
2023-04-23T22:24:34.785Z,13.71
2023-04-23T22:27:05.242Z,13.71
2023-04-23T22:29:34.875Z,13.69
2023-04-23T22:32:02.903Z,13.71
2023-04-23T22:34:30.839Z,13.68
2023-04-23T22:36:59.119Z,13.72
2023-04-23T22:39:27.053Z,13.67
2023-04-23T22:41:55.065Z,13.71
2023-04-23T22:44:23.014Z,13.70
2023-04-23T22:46:52.559Z,13.72
2023-04-23T22:49:20.606Z,13.74
2023-04-23T22:51:49.758Z,13.75
2023-04-23T22:54:17.759Z,13.76
2023-04-23T22:56:46.911Z,13.79
2023-04-23T22:59:15.134Z,13.83
2023-04-23T23:01:43.053Z,13.85
2023-04-23T23:04:14.088Z,13.85
2023-04-23T23:06:43.311Z,13.87
2023-04-23T23:09:11.265Z,13.87
2023-04-23T23:11:39.499Z,13.86
2023-04-23T23:14:07.447Z,13.83
2023-04-23T23:16:35.439Z,13.80
2023-04-23T23:19:04.185Z,13.80
2023-04-23T23:21:34.270Z,13.78
2023-04-23T23:24:02.558Z,13.79
2023-04-23T23:26:30.965Z,13.80
2023-04-23T23:28:59.094Z,13.83
2023-04-23T23:31:27.765Z,13.86
2023-04-23T23:33:55.833Z,13.88
2023-04-23T23:36:23.763Z,13.93
2023-04-23T23:38:53.117Z,13.94
2023-04-23T23:41:21.472Z,13.86
2023-04-23T23:43:49.391Z,13.95
2023-04-23T23:46:18.417Z,13.94
2023-04-23T23:48:46.536Z,13.94
2023-04-23T23:51:14.509Z,13.93
2023-04-23T23:53:46.578Z,13.93
2023-04-23T23:56:16.121Z,13.90
2023-04-23T23:58:44.220Z,13.90
